Terminal Aerodrome Forecast
Issued by NWS

Home | Current Version | Previous Version | Text Only | Print | Product List | Glossary On
Versions: 1 2 3 4 5 6 7 8 9 10 11 12 13 14 15 16 17
374
FTUS43 KIND 271138 AAA
TAFBMG
TAF AMD
KBMG 271138Z 2712/2812 16006KT P6SM SCT030 BKN180
      TEMPO 2712/2713 5SM BR BKN003
     FM271800 19009G16KT P6SM SCT050 BKN150
     FM280000 16004KT P6SM BKN120
      AMD LTD TO CLD VIS AND WIND TIL 271300=

USA.gov is the U.S. government's official web portal to all federal, state and local government web resources and services.